Estaciones cercanas a Meteocoruna.es

 

LECO - La Coruna/Alvedro, Espana
Distancia desde EA1HNP Meteo: NNE 12km
Actualización: 19/01/2022 02:30

 Viento del S
Viento: S 7 km/h
Visibilidad: 0 km
2022/01/19 01:30 LECO 190130Z AUTO 19004KT 0250 0150 R21/0300N R03/1500U FG VV001 03/02 Q1033
LEST - Santiago/Labacolla, Espana
Distancia desde EA1HNP Meteo: S 32km
Actualización: 19/01/2022 02:30
Despejado
Despejado
 Viento del varies
Viento: varies 2 km/h
Temperatura: 3°C
Rocío: 2°C
Humedad: 93%
Barómetro: 1032 hPa
Resumen: Despejado
Visibilidad: Superior a 10 km
2022/01/19 01:30 LEST 190130Z VRB01KT CAVOK 03/02 Q1032 NOSIG